Catalina, Canada
Current Conditions -  °F | °C
As of 7:00 AM on Friday 28 Nov 2014 (Local Time) from CYYT Reporting Station
Light Snow Light Snow  
Wind Chill: 20°   Ceiling: 1200
Heat Index: 32°   Visibility: 15mi
Dew Point: 30°   Wind: 18mph
Humidity: 93%   Direction: 310°NW
Pressure: 29.61"   Gusts: 26mph
Location:  48.52°N, 53.08°W
Report Text: CYYT 281000Z 31016G23KT 15SM -SN OVC012 00/M01 A2961 RMK SC8 PRESRR SLP032
Loading
Personal Weather Stations






























Interactive Weather Map New forecast layout! Learn more

10-Day Weather Forecast

Advertisements
Track Severe Weather on mobile